sensor_id;sensor_type;location;lat;lon;timestamp;temperature;humidity
11079;DHT22;5592;49.234;7.268;2022-11-27T00:01:11;3.80;99.90
11079;DHT22;5592;49.234;7.268;2022-11-27T00:03:38;3.80;99.90
11079;DHT22;5592;49.234;7.268;2022-11-27T00:06:04;3.80;99.90
11079;DHT22;5592;49.234;7.268;2022-11-27T00:08:30;3.90;99.90
11079;DHT22;5592;49.234;7.268;2022-11-27T00:10:56;3.90;99.90
11079;DHT22;5592;49.234;7.268;2022-11-27T00:13:24;3.90;99.90
11079;DHT22;5592;49.234;7.268;2022-11-27T00:15:49;4.00;99.90
11079;DHT22;5592;49.234;7.268;2022-11-27T00:18:16;3.90;99.90
11079;DHT22;5592;49.234;7.268;2022-11-27T00:20:41;3.80;99.90
11079;DHT22;5592;49.234;7.268;2022-11-27T00:23:07;3.80;99.90
11079;DHT22;5592;49.234;7.268;2022-11-27T00:25:32;3.90;99.90
11079;DHT22;5592;49.234;7.268;2022-11-27T00:27:58;3.80;99.90
11079;DHT22;5592;49.234;7.268;2022-11-27T00:30:24;3.80;99.90
11079;DHT22;5592;49.234;7.268;2022-11-27T00:32:50;3.80;99.90
11079;DHT22;5592;49.234;7.268;2022-11-27T00:35:15;3.90;99.90
11079;DHT22;5592;49.234;7.268;2022-11-27T00:37:41;3.90;99.90
11079;DHT22;5592;49.234;7.268;2022-11-27T00:40:09;3.90;99.90
11079;DHT22;5592;49.234;7.268;2022-11-27T00:42:35;3.90;99.90
11079;DHT22;5592;49.234;7.268;2022-11-27T00:45:00;3.90;99.90
11079;DHT22;5592;49.234;7.268;2022-11-27T00:47:29;3.90;99.90
11079;DHT22;5592;49.234;7.268;2022-11-27T00:49:55;4.00;99.90
11079;DHT22;5592;49.234;7.268;2022-11-27T00:52:20;4.00;99.90
11079;DHT22;5592;49.234;7.268;2022-11-27T00:54:46;3.90;99.90
11079;DHT22;5592;49.234;7.268;2022-11-27T00:57:11;3.80;99.90
11079;DHT22;5592;49.234;7.268;2022-11-27T00:59:39;3.80;99.90
11079;DHT22;5592;49.234;7.268;2022-11-27T01:02:05;3.70;99.90
11079;DHT22;5592;49.234;7.268;2022-11-27T01:04:30;3.70;99.90
11079;DHT22;5592;49.234;7.268;2022-11-27T01:06:56;3.60;99.90
11079;DHT22;5592;49.234;7.268;2022-11-27T01:09:24;3.70;99.90
11079;DHT22;5592;49.234;7.268;2022-11-27T01:11:50;3.80;99.90
11079;DHT22;5592;49.234;7.268;2022-11-27T01:14:17;3.80;99.90
11079;DHT22;5592;49.234;7.268;2022-11-27T01:16:43;3.70;99.90
11079;DHT22;5592;49.234;7.268;2022-11-27T01:19:09;3.70;99.90
11079;DHT22;5592;49.234;7.268;2022-11-27T01:21:35;3.70;99.90
11079;DHT22;5592;49.234;7.268;2022-11-27T01:24:03;3.60;99.90
11079;DHT22;5592;49.234;7.268;2022-11-27T01:26:29;3.60;99.90
11079;DHT22;5592;49.234;7.268;2022-11-27T01:28:56;3.70;99.90
11079;DHT22;5592;49.234;7.268;2022-11-27T01:31:26;3.70;99.90
11079;DHT22;5592;49.234;7.268;2022-11-27T01:33:54;3.70;99.90
11079;DHT22;5592;49.234;7.268;2022-11-27T01:36:20;3.70;99.90
11079;DHT22;5592;49.234;7.268;2022-11-27T01:38:45;3.80;99.90
11079;DHT22;5592;49.234;7.268;2022-11-27T01:41:14;3.80;99.90
11079;DHT22;5592;49.234;7.268;2022-11-27T01:43:52;3.80;99.90
11079;DHT22;5592;49.234;7.268;2022-11-27T01:48:57;3.90;99.90
11079;DHT22;5592;49.234;7.268;2022-11-27T01:51:24;3.90;99.90
11079;DHT22;5592;49.234;7.268;2022-11-27T01:53:51;3.80;99.90
11079;DHT22;5592;49.234;7.268;2022-11-27T01:56:19;3.90;99.90
11079;DHT22;5592;49.234;7.268;2022-11-27T01:58:45;3.80;99.90
11079;DHT22;5592;49.234;7.268;2022-11-27T02:01:11;3.90;99.90
11079;DHT22;5592;49.234;7.268;2022-11-27T02:03:36;3.80;99.90
11079;DHT22;5592;49.234;7.268;2022-11-27T02:06:02;3.70;99.90
11079;DHT22;5592;49.234;7.268;2022-11-27T02:08:28;3.80;99.90
11079;DHT22;5592;49.234;7.268;2022-11-27T02:11:09;3.80;99.90
11079;DHT22;5592;49.234;7.268;2022-11-27T02:13:47;3.70;99.90
11079;DHT22;5592;49.234;7.268;2022-11-27T02:16:30;3.90;99.90
11079;DHT22;5592;49.234;7.268;2022-11-27T02:21:37;3.90;99.90
11079;DHT22;5592;49.234;7.268;2022-11-27T02:29:38;3.90;99.90
11079;DHT22;5592;49.234;7.268;2022-11-27T02:32:19;3.90;99.90
11079;DHT22;5592;49.234;7.268;2022-11-27T02:37:33;3.80;99.90
11079;DHT22;5592;49.234;7.268;2022-11-27T02:43:11;3.80;99.90
11079;DHT22;5592;49.234;7.268;2022-11-27T02:45:42;3.70;99.90
11079;DHT22;5592;49.234;7.268;2022-11-27T02:48:09;3.70;99.90
11079;DHT22;5592;49.234;7.268;2022-11-27T02:50:37;3.70;99.90
11079;DHT22;5592;49.234;7.268;2022-11-27T02:53:07;3.60;99.90
11079;DHT22;5592;49.234;7.268;2022-11-27T02:55:38;3.70;99.90
11079;DHT22;5592;49.234;7.268;2022-11-27T02:58:08;3.70;99.90
11079;DHT22;5592;49.234;7.268;2022-11-27T03:00:36;3.70;99.90
11079;DHT22;5592;49.234;7.268;2022-11-27T03:03:05;3.60;99.90
11079;DHT22;5592;49.234;7.268;2022-11-27T03:05:37;3.60;99.90
11079;DHT22;5592;49.234;7.268;2022-11-27T03:08:10;3.60;99.90
11079;DHT22;5592;49.234;7.268;2022-11-27T03:11:04;3.60;99.90
11079;DHT22;5592;49.234;7.268;2022-11-27T03:13:33;3.60;99.90
11079;DHT22;5592;49.234;7.268;2022-11-27T03:22:06;3.70;99.90
11079;DHT22;5592;49.234;7.268;2022-11-27T03:24:33;3.60;99.90
11079;DHT22;5592;49.234;7.268;2022-11-27T03:27:00;3.70;99.90
11079;DHT22;5592;49.234;7.268;2022-11-27T03:29:34;3.60;99.90
11079;DHT22;5592;49.234;7.268;2022-11-27T03:32:02;3.50;99.90
11079;DHT22;5592;49.234;7.268;2022-11-27T03:34:29;3.50;99.90
11079;DHT22;5592;49.234;7.268;2022-11-27T03:36:55;3.40;99.90
11079;DHT22;5592;49.234;7.268;2022-11-27T03:39:21;3.40;99.90
11079;DHT22;5592;49.234;7.268;2022-11-27T03:44:51;3.30;99.90
11079;DHT22;5592;49.234;7.268;2022-11-27T03:47:48;3.30;99.90
11079;DHT22;5592;49.234;7.268;2022-11-27T03:51:13;3.40;99.90
11079;DHT22;5592;49.234;7.268;2022-11-27T03:53:21;3.40;99.90
11079;DHT22;5592;49.234;7.268;2022-11-27T03:58:40;3.50;99.90
11079;DHT22;5592;49.234;7.268;2022-11-27T04:01:10;3.50;99.90
11079;DHT22;5592;49.234;7.268;2022-11-27T04:03:37;3.50;99.90
11079;DHT22;5592;49.234;7.268;2022-11-27T04:06:03;3.50;99.90
11079;DHT22;5592;49.234;7.268;2022-11-27T04:08:28;3.60;99.90
11079;DHT22;5592;49.234;7.268;2022-11-27T04:10:54;3.60;99.90
11079;DHT22;5592;49.234;7.268;2022-11-27T04:13:20;3.60;99.90
11079;DHT22;5592;49.234;7.268;2022-11-27T04:15:45;3.60;99.90
11079;DHT22;5592;49.234;7.268;2022-11-27T04:18:13;3.70;99.90
11079;DHT22;5592;49.234;7.268;2022-11-27T04:20:39;3.70;99.90
11079;DHT22;5592;49.234;7.268;2022-11-27T04:23:05;3.70;99.90
11079;DHT22;5592;49.234;7.268;2022-11-27T04:25:34;3.70;99.90
11079;DHT22;5592;49.234;7.268;2022-11-27T04:27:59;3.70;99.90
11079;DHT22;5592;49.234;7.268;2022-11-27T04:30:25;3.60;99.90
11079;DHT22;5592;49.234;7.268;2022-11-27T04:32:50;3.60;99.90
11079;DHT22;5592;49.234;7.268;2022-11-27T04:35:16;3.60;99.90
11079;DHT22;5592;49.234;7.268;2022-11-27T04:37:42;3.60;99.90
11079;DHT22;5592;49.234;7.268;2022-11-27T04:40:10;3.70;99.90
11079;DHT22;5592;49.234;7.268;2022-11-27T04:42:36;3.80;99.90
11079;DHT22;5592;49.234;7.268;2022-11-27T04:45:01;3.80;99.90
11079;DHT22;5592;49.234;7.268;2022-11-27T04:47:27;3.80;99.90
11079;DHT22;5592;49.234;7.268;2022-11-27T04:49:53;3.80;99.90
11079;DHT22;5592;49.234;7.268;2022-11-27T04:52:18;3.80;99.90
11079;DHT22;5592;49.234;7.268;2022-11-27T04:54:44;3.80;99.90
11079;DHT22;5592;49.234;7.268;2022-11-27T04:57:09;3.80;99.90
11079;DHT22;5592;49.234;7.268;2022-11-27T04:59:35;3.80;99.90
11079;DHT22;5592;49.234;7.268;2022-11-27T05:02:05;3.80;99.90
11079;DHT22;5592;49.234;7.268;2022-11-27T05:04:31;3.90;99.90
11079;DHT22;5592;49.234;7.268;2022-11-27T05:06:57;3.80;99.90
11079;DHT22;5592;49.234;7.268;2022-11-27T05:09:22;3.80;99.90
11079;DHT22;5592;49.234;7.268;2022-11-27T05:11:48;3.80;99.90
11079;DHT22;5592;49.234;7.268;2022-11-27T05:14:14;3.90;99.90
11079;DHT22;5592;49.234;7.268;2022-11-27T05:16:48;3.90;99.90
11079;DHT22;5592;49.234;7.268;2022-11-27T05:19:15;3.90;99.90
11079;DHT22;5592;49.234;7.268;2022-11-27T05:21:42;3.90;99.90
11079;DHT22;5592;49.234;7.268;2022-11-27T05:24:08;3.90;99.90
11079;DHT22;5592;49.234;7.268;2022-11-27T05:26:33;4.00;99.90
11079;DHT22;5592;49.234;7.268;2022-11-27T05:28:59;4.00;99.90
11079;DHT22;5592;49.234;7.268;2022-11-27T05:31:25;4.00;99.90
11079;DHT22;5592;49.234;7.268;2022-11-27T05:33:51;4.00;99.90
11079;DHT22;5592;49.234;7.268;2022-11-27T05:36:16;4.00;99.90
11079;DHT22;5592;49.234;7.268;2022-11-27T05:38:42;4.00;99.90
11079;DHT22;5592;49.234;7.268;2022-11-27T05:41:08;4.00;99.90
11079;DHT22;5592;49.234;7.268;2022-11-27T05:43:33;4.00;99.90
11079;DHT22;5592;49.234;7.268;2022-11-27T05:46:03;4.00;99.90
11079;DHT22;5592;49.234;7.268;2022-11-27T05:48:29;4.00;99.90
11079;DHT22;5592;49.234;7.268;2022-11-27T05:50:55;4.10;99.90
11079;DHT22;5592;49.234;7.268;2022-11-27T05:53:21;4.10;99.90
11079;DHT22;5592;49.234;7.268;2022-11-27T05:55:47;4.20;99.90
11079;DHT22;5592;49.234;7.268;2022-11-27T05:58:12;4.20;99.90
11079;DHT22;5592;49.234;7.268;2022-11-27T06:00:38;4.20;99.90
11079;DHT22;5592;49.234;7.268;2022-11-27T06:03:03;4.20;99.90
11079;DHT22;5592;49.234;7.268;2022-11-27T06:05:29;4.20;99.90
11079;DHT22;5592;49.234;7.268;2022-11-27T06:07:54;4.20;99.90
11079;DHT22;5592;49.234;7.268;2022-11-27T06:10:20;4.20;99.90
11079;DHT22;5592;49.234;7.268;2022-11-27T06:12:46;4.10;99.90
11079;DHT22;5592;49.234;7.268;2022-11-27T06:15:11;4.10;99.90
11079;DHT22;5592;49.234;7.268;2022-11-27T06:17:37;4.20;99.90
11079;DHT22;5592;49.234;7.268;2022-11-27T06:20:03;4.10;99.90
11079;DHT22;5592;49.234;7.268;2022-11-27T06:22:30;4.10;99.90
11079;DHT22;5592;49.234;7.268;2022-11-27T06:24:56;4.10;99.90
11079;DHT22;5592;49.234;7.268;2022-11-27T06:27:24;4.20;99.90
11079;DHT22;5592;49.234;7.268;2022-11-27T06:29:49;4.20;99.90
11079;DHT22;5592;49.234;7.268;2022-11-27T06:32:15;4.30;99.90
11079;DHT22;5592;49.234;7.268;2022-11-27T06:34:40;4.40;99.90
11079;DHT22;5592;49.234;7.268;2022-11-27T06:37:06;4.30;99.90
11079;DHT22;5592;49.234;7.268;2022-11-27T06:39:32;4.30;99.90
11079;DHT22;5592;49.234;7.268;2022-11-27T06:41:57;4.30;99.90
11079;DHT22;5592;49.234;7.268;2022-11-27T06:44:23;4.30;99.90
11079;DHT22;5592;49.234;7.268;2022-11-27T06:46:48;4.30;99.90
11079;DHT22;5592;49.234;7.268;2022-11-27T06:49:14;4.40;99.90
11079;DHT22;5592;49.234;7.268;2022-11-27T06:51:40;4.50;99.90
11079;DHT22;5592;49.234;7.268;2022-11-27T06:54:05;4.40;99.90
11079;DHT22;5592;49.234;7.268;2022-11-27T06:56:31;4.30;99.90
11079;DHT22;5592;49.234;7.268;2022-11-27T06:58:58;4.30;99.90
11079;DHT22;5592;49.234;7.268;2022-11-27T07:01:26;4.30;99.90
11079;DHT22;5592;49.234;7.268;2022-11-27T07:03:52;4.30;99.90
11079;DHT22;5592;49.234;7.268;2022-11-27T07:06:21;4.40;99.90
11079;DHT22;5592;49.234;7.268;2022-11-27T07:08:47;4.40;99.90
11079;DHT22;5592;49.234;7.268;2022-11-27T07:11:19;4.50;99.90
11079;DHT22;5592;49.234;7.268;2022-11-27T07:13:47;4.50;99.90
11079;DHT22;5592;49.234;7.268;2022-11-27T07:16:13;4.40;99.90
11079;DHT22;5592;49.234;7.268;2022-11-27T07:18:48;4.40;99.90
11079;DHT22;5592;49.234;7.268;2022-11-27T07:21:17;4.50;99.90
11079;DHT22;5592;49.234;7.268;2022-11-27T07:23:42;4.50;99.90
11079;DHT22;5592;49.234;7.268;2022-11-27T07:26:13;4.50;99.90
11079;DHT22;5592;49.234;7.268;2022-11-27T07:28:39;4.60;99.90
11079;DHT22;5592;49.234;7.268;2022-11-27T07:31:08;4.70;99.90
11079;DHT22;5592;49.234;7.268;2022-11-27T07:33:34;4.60;99.90
11079;DHT22;5592;49.234;7.268;2022-11-27T07:36:17;4.70;99.90
11079;DHT22;5592;49.234;7.268;2022-11-27T07:38:43;4.80;99.90
11079;DHT22;5592;49.234;7.268;2022-11-27T07:41:10;4.70;99.90
11079;DHT22;5592;49.234;7.268;2022-11-27T07:43:36;4.80;99.90
11079;DHT22;5592;49.234;7.268;2022-11-27T07:46:10;4.80;99.90
11079;DHT22;5592;49.234;7.268;2022-11-27T07:48:37;4.70;99.90
11079;DHT22;5592;49.234;7.268;2022-11-27T07:51:10;4.70;99.90
11079;DHT22;5592;49.234;7.268;2022-11-27T07:53:37;4.70;99.90
11079;DHT22;5592;49.234;7.268;2022-11-27T07:56:05;4.70;99.90
11079;DHT22;5592;49.234;7.268;2022-11-27T07:58:31;4.80;99.90
11079;DHT22;5592;49.234;7.268;2022-11-27T08:00:56;4.80;99.90
11079;DHT22;5592;49.234;7.268;2022-11-27T08:03:22;4.90;99.90
11079;DHT22;5592;49.234;7.268;2022-11-27T08:05:48;5.00;99.90
11079;DHT22;5592;49.234;7.268;2022-11-27T08:08:14;5.00;99.90
11079;DHT22;5592;49.234;7.268;2022-11-27T08:10:40;5.10;99.90
11079;DHT22;5592;49.234;7.268;2022-11-27T08:13:06;5.10;99.90
11079;DHT22;5592;49.234;7.268;2022-11-27T08:15:32;5.10;99.90
11079;DHT22;5592;49.234;7.268;2022-11-27T08:17:58;5.10;99.90
11079;DHT22;5592;49.234;7.268;2022-11-27T08:20:24;5.10;99.90
11079;DHT22;5592;49.234;7.268;2022-11-27T08:22:50;5.00;99.90
11079;DHT22;5592;49.234;7.268;2022-11-27T08:25:16;5.10;99.90
11079;DHT22;5592;49.234;7.268;2022-11-27T08:27:42;5.20;99.90
11079;DHT22;5592;49.234;7.268;2022-11-27T08:30:08;5.30;99.90
11079;DHT22;5592;49.234;7.268;2022-11-27T08:32:37;5.40;99.90
11079;DHT22;5592;49.234;7.268;2022-11-27T08:35:07;5.40;99.90
11079;DHT22;5592;49.234;7.268;2022-11-27T08:37:33;5.50;99.90
11079;DHT22;5592;49.234;7.268;2022-11-27T08:40:02;5.50;99.90
11079;DHT22;5592;49.234;7.268;2022-11-27T08:42:30;5.40;99.90
11079;DHT22;5592;49.234;7.268;2022-11-27T08:44:56;5.50;99.90
11079;DHT22;5592;49.234;7.268;2022-11-27T08:47:21;5.70;99.90
11079;DHT22;5592;49.234;7.268;2022-11-27T08:49:47;5.70;99.90
11079;DHT22;5592;49.234;7.268;2022-11-27T08:52:12;5.80;99.90
11079;DHT22;5592;49.234;7.268;2022-11-27T08:54:38;5.80;99.90
11079;DHT22;5592;49.234;7.268;2022-11-27T08:57:03;5.80;99.90
11079;DHT22;5592;49.234;7.268;2022-11-27T08:59:30;5.80;99.90
11079;DHT22;5592;49.234;7.268;2022-11-27T09:01:56;5.80;99.90
11079;DHT22;5592;49.234;7.268;2022-11-27T09:04:24;5.90;99.90
11079;DHT22;5592;49.234;7.268;2022-11-27T09:06:49;5.80;99.90
11079;DHT22;5592;49.234;7.268;2022-11-27T09:09:15;5.80;99.90
11079;DHT22;5592;49.234;7.268;2022-11-27T09:11:41;5.90;99.90
11079;DHT22;5592;49.234;7.268;2022-11-27T09:14:07;5.90;99.90
11079;DHT22;5592;49.234;7.268;2022-11-27T09:16:33;5.90;99.90
11079;DHT22;5592;49.234;7.268;2022-11-27T09:19:00;6.00;99.90
11079;DHT22;5592;49.234;7.268;2022-11-27T09:21:27;6.00;99.90
11079;DHT22;5592;49.234;7.268;2022-11-27T09:23:59;6.10;99.90
11079;DHT22;5592;49.234;7.268;2022-11-27T09:26:25;6.30;99.90
11079;DHT22;5592;49.234;7.268;2022-11-27T09:28:54;6.30;99.90
11079;DHT22;5592;49.234;7.268;2022-11-27T09:31:20;6.30;99.90
11079;DHT22;5592;49.234;7.268;2022-11-27T09:33:46;6.30;99.90
11079;DHT22;5592;49.234;7.268;2022-11-27T09:36:15;6.40;99.90
11079;DHT22;5592;49.234;7.268;2022-11-27T09:38:41;6.50;99.90
11079;DHT22;5592;49.234;7.268;2022-11-27T09:43:52;6.40;99.90
11079;DHT22;5592;49.234;7.268;2022-11-27T09:46:34;6.60;99.90
11079;DHT22;5592;49.234;7.268;2022-11-27T09:49:08;6.60;99.90
11079;DHT22;5592;49.234;7.268;2022-11-27T09:51:45;6.70;99.90
11079;DHT22;5592;49.234;7.268;2022-11-27T09:56:38;6.80;99.90
11079;DHT22;5592;49.234;7.268;2022-11-27T09:59:15;6.80;99.90
11079;DHT22;5592;49.234;7.268;2022-11-27T10:01:41;6.80;99.90
11079;DHT22;5592;49.234;7.268;2022-11-27T10:04:12;6.90;99.90
11079;DHT22;5592;49.234;7.268;2022-11-27T10:09:38;7.10;99.90
11079;DHT22;5592;49.234;7.268;2022-11-27T10:17:14;7.70;99.90
11079;DHT22;5592;49.234;7.268;2022-11-27T10:25:39;7.80;99.90
11079;DHT22;5592;49.234;7.268;2022-11-27T10:28:40;7.90;99.90
11079;DHT22;5592;49.234;7.268;2022-11-27T10:31:17;7.70;99.90
11079;DHT22;5592;49.234;7.268;2022-11-27T10:33:52;7.80;99.90
11079;DHT22;5592;49.234;7.268;2022-11-27T10:36:41;7.60;99.90
11079;DHT22;5592;49.234;7.268;2022-11-27T10:39:48;7.40;99.90
11079;DHT22;5592;49.234;7.268;2022-11-27T10:42:21;7.40;99.90
11079;DHT22;5592;49.234;7.268;2022-11-27T10:45:05;7.30;99.90
11079;DHT22;5592;49.234;7.268;2022-11-27T10:47:31;7.50;99.90
11079;DHT22;5592;49.234;7.268;2022-11-27T10:49:57;7.60;99.90
11079;DHT22;5592;49.234;7.268;2022-11-27T10:52:24;7.60;99.90
11079;DHT22;5592;49.234;7.268;2022-11-27T10:55:01;7.80;99.90
11079;DHT22;5592;49.234;7.268;2022-11-27T10:57:37;8.00;99.90
11079;DHT22;5592;49.234;7.268;2022-11-27T11:00:22;7.90;99.90
11079;DHT22;5592;49.234;7.268;2022-11-27T11:03:01;7.80;99.90
11079;DHT22;5592;49.234;7.268;2022-11-27T11:05:27;7.60;99.90
11079;DHT22;5592;49.234;7.268;2022-11-27T11:08:02;7.70;99.90
11079;DHT22;5592;49.234;7.268;2022-11-27T11:10:37;8.00;99.90
11079;DHT22;5592;49.234;7.268;2022-11-27T11:13:16;8.00;99.90
11079;DHT22;5592;49.234;7.268;2022-11-27T11:15:50;8.00;99.90
11079;DHT22;5592;49.234;7.268;2022-11-27T11:18:18;8.10;99.90
11079;DHT22;5592;49.234;7.268;2022-11-27T11:20:49;8.20;99.90
11079;DHT22;5592;49.234;7.268;2022-11-27T11:23:33;8.30;99.90
11079;DHT22;5592;49.234;7.268;2022-11-27T11:26:26;8.40;99.90
11079;DHT22;5592;49.234;7.268;2022-11-27T11:28:55;8.40;99.90
11079;DHT22;5592;49.234;7.268;2022-11-27T11:31:28;8.40;99.90
11079;DHT22;5592;49.234;7.268;2022-11-27T11:33:57;8.50;99.90
11079;DHT22;5592;49.234;7.268;2022-11-27T11:36:23;8.70;99.90
11079;DHT22;5592;49.234;7.268;2022-11-27T11:38:49;8.80;99.90
11079;DHT22;5592;49.234;7.268;2022-11-27T11:41:15;8.90;99.90
11079;DHT22;5592;49.234;7.268;2022-11-27T11:44:23;8.90;99.90
11079;DHT22;5592;49.234;7.268;2022-11-27T11:46:54;8.80;99.90
11079;DHT22;5592;49.234;7.268;2022-11-27T11:49:27;8.80;99.90
11079;DHT22;5592;49.234;7.268;2022-11-27T11:52:14;8.80;99.90
11079;DHT22;5592;49.234;7.268;2022-11-27T11:54:56;8.50;99.90
11079;DHT22;5592;49.234;7.268;2022-11-27T12:00:20;8.70;99.90
11079;DHT22;5592;49.234;7.268;2022-11-27T12:03:13;8.60;99.90
11079;DHT22;5592;49.234;7.268;2022-11-27T12:08:58;8.60;99.90
11079;DHT22;5592;49.234;7.268;2022-11-27T12:11:48;8.60;99.90
11079;DHT22;5592;49.234;7.268;2022-11-27T12:14:42;8.80;99.90
11079;DHT22;5592;49.234;7.268;2022-11-27T12:25:30;8.90;99.90
11079;DHT22;5592;49.234;7.268;2022-11-27T12:39:12;8.50;99.90
11079;DHT22;5592;49.234;7.268;2022-11-27T12:44:55;8.60;99.90
11079;DHT22;5592;49.234;7.268;2022-11-27T12:47:41;8.50;99.90
11079;DHT22;5592;49.234;7.268;2022-11-27T12:50:08;8.60;99.90
11079;DHT22;5592;49.234;7.268;2022-11-27T12:52:41;8.80;99.90
11079;DHT22;5592;49.234;7.268;2022-11-27T12:55:19;8.90;99.90
11079;DHT22;5592;49.234;7.268;2022-11-27T12:57:55;9.10;99.90
11079;DHT22;5592;49.234;7.268;2022-11-27T13:00:24;9.20;99.90
11079;DHT22;5592;49.234;7.268;2022-11-27T13:05:33;9.20;99.90
11079;DHT22;5592;49.234;7.268;2022-11-27T13:10:42;9.10;99.90
11079;DHT22;5592;49.234;7.268;2022-11-27T13:13:15;9.10;99.90
11079;DHT22;5592;49.234;7.268;2022-11-27T13:15:48;9.00;99.90
11079;DHT22;5592;49.234;7.268;2022-11-27T13:18:32;9.00;99.90
11079;DHT22;5592;49.234;7.268;2022-11-27T13:21:03;9.00;99.90
11079;DHT22;5592;49.234;7.268;2022-11-27T13:23:33;8.80;99.90
11079;DHT22;5592;49.234;7.268;2022-11-27T13:26:02;8.80;99.90
11079;DHT22;5592;49.234;7.268;2022-11-27T13:28:41;8.60;99.90
11079;DHT22;5592;49.234;7.268;2022-11-27T13:31:15;8.50;99.90
11079;DHT22;5592;49.234;7.268;2022-11-27T13:33:43;8.20;99.90
11079;DHT22;5592;49.234;7.268;2022-11-27T13:36:21;8.10;99.90
11079;DHT22;5592;49.234;7.268;2022-11-27T13:38:58;8.00;99.90
11079;DHT22;5592;49.234;7.268;2022-11-27T13:41:36;8.00;99.90
11079;DHT22;5592;49.234;7.268;2022-11-27T13:44:21;8.10;99.90
11079;DHT22;5592;49.234;7.268;2022-11-27T13:46:53;8.10;99.90
11079;DHT22;5592;49.234;7.268;2022-11-27T13:49:29;8.20;99.90
11079;DHT22;5592;49.234;7.268;2022-11-27T13:55:01;8.10;99.90
11079;DHT22;5592;49.234;7.268;2022-11-27T13:57:28;8.20;99.90
11079;DHT22;5592;49.234;7.268;2022-11-27T14:00:01;8.20;99.90
11079;DHT22;5592;49.234;7.268;2022-11-27T14:02:40;8.00;99.90
11079;DHT22;5592;49.234;7.268;2022-11-27T14:05:05;7.90;99.90
11079;DHT22;5592;49.234;7.268;2022-11-27T14:07:38;7.90;99.90
11079;DHT22;5592;49.234;7.268;2022-11-27T14:10:26;8.00;99.90
11079;DHT22;5592;49.234;7.268;2022-11-27T14:12:59;8.10;99.90
11079;DHT22;5592;49.234;7.268;2022-11-27T14:15:27;8.00;99.90
11079;DHT22;5592;49.234;7.268;2022-11-27T14:18:16;8.00;99.90
11079;DHT22;5592;49.234;7.268;2022-11-27T14:20:51;8.10;99.90
11079;DHT22;5592;49.234;7.268;2022-11-27T14:23:32;8.10;99.90
11079;DHT22;5592;49.234;7.268;2022-11-27T14:26:02;8.10;99.90
11079;DHT22;5592;49.234;7.268;2022-11-27T14:28:34;7.90;99.90
11079;DHT22;5592;49.234;7.268;2022-11-27T14:31:01;7.90;99.90
11079;DHT22;5592;49.234;7.268;2022-11-27T14:33:29;7.90;99.90
11079;DHT22;5592;49.234;7.268;2022-11-27T14:36:00;7.90;99.90
11079;DHT22;5592;49.234;7.268;2022-11-27T14:38:28;8.00;99.90
11079;DHT22;5592;49.234;7.268;2022-11-27T14:41:09;8.00;99.90
11079;DHT22;5592;49.234;7.268;2022-11-27T14:43:35;8.00;99.90
11079;DHT22;5592;49.234;7.268;2022-11-27T14:46:02;8.00;99.90
11079;DHT22;5592;49.234;7.268;2022-11-27T14:48:49;8.00;99.90
11079;DHT22;5592;49.234;7.268;2022-11-27T14:51:33;7.90;99.90
11079;DHT22;5592;49.234;7.268;2022-11-27T14:54:17;7.90;99.90
11079;DHT22;5592;49.234;7.268;2022-11-27T14:56:45;7.70;99.90
11079;DHT22;5592;49.234;7.268;2022-11-27T14:59:16;7.70;99.90
11079;DHT22;5592;49.234;7.268;2022-11-27T15:01:43;7.60;99.90
11079;DHT22;5592;49.234;7.268;2022-11-27T15:04:35;7.60;99.90
11079;DHT22;5592;49.234;7.268;2022-11-27T15:07:16;7.60;99.90
11079;DHT22;5592;49.234;7.268;2022-11-27T15:09:45;7.50;99.90
11079;DHT22;5592;49.234;7.268;2022-11-27T15:12:29;7.50;99.90
11079;DHT22;5592;49.234;7.268;2022-11-27T15:17:27;7.40;99.90
11079;DHT22;5592;49.234;7.268;2022-11-27T15:19:54;7.30;99.90
11079;DHT22;5592;49.234;7.268;2022-11-27T15:22:21;7.30;99.90
11079;DHT22;5592;49.234;7.268;2022-11-27T15:25:00;7.30;99.90
11079;DHT22;5592;49.234;7.268;2022-11-27T15:27:26;7.20;99.90
11079;DHT22;5592;49.234;7.268;2022-11-27T15:30:08;7.20;99.90
11079;DHT22;5592;49.234;7.268;2022-11-27T15:32:49;7.10;99.90
11079;DHT22;5592;49.234;7.268;2022-11-27T15:35:29;7.10;99.90
11079;DHT22;5592;49.234;7.268;2022-11-27T15:37:57;7.00;99.90
11079;DHT22;5592;49.234;7.268;2022-11-27T15:40:36;7.00;99.90
11079;DHT22;5592;49.234;7.268;2022-11-27T15:43:09;6.90;99.90
11079;DHT22;5592;49.234;7.268;2022-11-27T15:45:35;6.80;99.90
11079;DHT22;5592;49.234;7.268;2022-11-27T15:48:01;6.80;99.90
11079;DHT22;5592;49.234;7.268;2022-11-27T15:50:30;6.70;99.90
11079;DHT22;5592;49.234;7.268;2022-11-27T15:52:56;6.70;99.90
11079;DHT22;5592;49.234;7.268;2022-11-27T15:55:22;6.60;99.90
11079;DHT22;5592;49.234;7.268;2022-11-27T15:57:48;6.60;99.90
11079;DHT22;5592;49.234;7.268;2022-11-27T16:00:14;6.60;99.90
11079;DHT22;5592;49.234;7.268;2022-11-27T16:02:40;6.60;99.90
11079;DHT22;5592;49.234;7.268;2022-11-27T16:05:07;6.60;99.90
11079;DHT22;5592;49.234;7.268;2022-11-27T16:07:35;6.50;99.90
11079;DHT22;5592;49.234;7.268;2022-11-27T16:10:00;6.50;99.90
11079;DHT22;5592;49.234;7.268;2022-11-27T16:12:26;6.60;99.90
11079;DHT22;5592;49.234;7.268;2022-11-27T16:14:54;6.50;99.90
11079;DHT22;5592;49.234;7.268;2022-11-27T16:17:20;6.50;99.90
11079;DHT22;5592;49.234;7.268;2022-11-27T16:19:46;6.50;99.90
11079;DHT22;5592;49.234;7.268;2022-11-27T16:22:11;6.50;99.90
11079;DHT22;5592;49.234;7.268;2022-11-27T16:24:37;6.50;99.90
11079;DHT22;5592;49.234;7.268;2022-11-27T16:27:02;6.40;99.90
11079;DHT22;5592;49.234;7.268;2022-11-27T16:29:28;6.50;99.90
11079;DHT22;5592;49.234;7.268;2022-11-27T16:31:54;6.40;99.90
11079;DHT22;5592;49.234;7.268;2022-11-27T16:34:21;6.40;99.90
11079;DHT22;5592;49.234;7.268;2022-11-27T16:36:46;6.40;99.90
11079;DHT22;5592;49.234;7.268;2022-11-27T16:39:12;6.40;99.90
11079;DHT22;5592;49.234;7.268;2022-11-27T16:41:38;6.40;99.90
11079;DHT22;5592;49.234;7.268;2022-11-27T16:44:09;6.30;99.90
11079;DHT22;5592;49.234;7.268;2022-11-27T16:46:35;6.30;99.90
11079;DHT22;5592;49.234;7.268;2022-11-27T16:49:04;6.30;99.90
11079;DHT22;5592;49.234;7.268;2022-11-27T16:51:32;6.30;99.90
11079;DHT22;5592;49.234;7.268;2022-11-27T16:54:00;6.30;99.90
11079;DHT22;5592;49.234;7.268;2022-11-27T16:56:28;6.30;99.90
11079;DHT22;5592;49.234;7.268;2022-11-27T16:58:55;6.30;99.90
11079;DHT22;5592;49.234;7.268;2022-11-27T17:01:29;6.30;99.90
11079;DHT22;5592;49.234;7.268;2022-11-27T17:03:59;6.30;99.90
11079;DHT22;5592;49.234;7.268;2022-11-27T17:06:29;6.20;99.90
11079;DHT22;5592;49.234;7.268;2022-11-27T17:08:56;6.40;99.90
11079;DHT22;5592;49.234;7.268;2022-11-27T17:11:24;6.40;99.90
11079;DHT22;5592;49.234;7.268;2022-11-27T17:13:52;6.40;99.90
11079;DHT22;5592;49.234;7.268;2022-11-27T17:16:19;6.30;99.90
11079;DHT22;5592;49.234;7.268;2022-11-27T17:18:45;6.30;99.90
11079;DHT22;5592;49.234;7.268;2022-11-27T17:21:27;6.30;99.90
11079;DHT22;5592;49.234;7.268;2022-11-27T17:23:58;6.30;99.90
11079;DHT22;5592;49.234;7.268;2022-11-27T17:26:26;6.30;99.90
11079;DHT22;5592;49.234;7.268;2022-11-27T17:28:53;6.30;99.90
11079;DHT22;5592;49.234;7.268;2022-11-27T17:31:31;6.20;99.90
11079;DHT22;5592;49.234;7.268;2022-11-27T17:34:02;6.20;99.90
11079;DHT22;5592;49.234;7.268;2022-11-27T17:36:32;6.20;99.90
11079;DHT22;5592;49.234;7.268;2022-11-27T17:38:57;6.20;99.90
11079;DHT22;5592;49.234;7.268;2022-11-27T17:41:26;6.20;99.90
11079;DHT22;5592;49.234;7.268;2022-11-27T17:43:51;6.30;99.90
11079;DHT22;5592;49.234;7.268;2022-11-27T17:46:21;6.30;99.90